Rocky Ridge, Utah
Current Conditions -  °F | °C
As of 4:59 PM on Sunday 25 Jan 2015 (Local Time) from KPVU Reporting Station
Scattered Clouds Scattered Clouds  
Wind Chill: 38°   Ceiling: Unl
Heat Index: 41°   Visibility: 15mi
Dew Point: 28°   Wind: 5mph
Humidity: 61%   Direction: NA
Pressure: 30.41"   Gusts: NA
Location:  39.852°N, 111.839°W
Report Text: KPVU 252359Z VRB04KT 15SM SCT160 05/M02 A3041
Loading
Personal Weather Stations






























Interactive Weather Map New forecast layout! Learn more

10-Day Weather Forecast

Advertisements
Track Severe Weather on mobile